createdAt,value
2018-12-06T00:00:37.189Z,28.83
2018-12-06T00:03:06.044Z,26.87
2018-12-06T00:05:34.073Z,30.93
2018-12-06T00:08:13.356Z,27.50
2018-12-06T00:10:41.392Z,27.03
2018-12-06T00:13:09.433Z,28.07
2018-12-06T00:15:37.396Z,27.10
2018-12-06T00:18:05.744Z,32.87
2018-12-06T00:20:34.156Z,27.40
2018-12-06T00:23:02.140Z,25.93
2018-12-06T00:25:30.228Z,29.43
2018-12-06T00:27:58.199Z,31.43
2018-12-06T00:30:35.275Z,27.90
2018-12-06T00:33:04.220Z,29.27
2018-12-06T00:35:32.170Z,31.40
2018-12-06T00:38:00.264Z,34.30
2018-12-06T00:40:28.320Z,31.37
2018-12-06T00:42:56.288Z,31.70
2018-12-06T00:45:24.272Z,33.50
2018-12-06T00:47:52.213Z,30.33
2018-12-06T00:50:20.156Z,32.60
2018-12-06T00:52:48.108Z,31.37
2018-12-06T00:55:16.052Z,30.83
2018-12-06T00:57:43.981Z,29.70
2018-12-06T01:00:12.680Z,34.07
2018-12-06T01:02:40.639Z,34.67
2018-12-06T01:05:08.732Z,32.63
2018-12-06T01:07:36.737Z,31.03
2018-12-06T01:10:05.914Z,33.90
2018-12-06T01:12:33.964Z,30.00
2018-12-06T01:15:01.945Z,33.63
2018-12-06T01:17:29.896Z,30.23
2018-12-06T01:19:57.948Z,30.17
2018-12-06T01:22:25.944Z,32.03
2018-12-06T01:24:53.876Z,28.47
2018-12-06T01:27:21.827Z,32.13
2018-12-06T01:29:49.799Z,31.60
2018-12-06T01:32:17.748Z,35.97
2018-12-06T01:34:45.784Z,35.93
2018-12-06T01:37:13.745Z,28.43
2018-12-06T01:39:41.705Z,31.97
2018-12-06T01:42:09.750Z,33.73
2018-12-06T01:44:37.814Z,31.30
2018-12-06T01:47:05.830Z,33.93
2018-12-06T01:49:33.805Z,31.43
2018-12-06T01:52:01.801Z,30.50
2018-12-06T01:54:29.765Z,30.40
2018-12-06T01:56:57.745Z,30.47
2018-12-06T01:59:25.708Z,32.97
2018-12-06T02:01:53.750Z,34.40
2018-12-06T02:04:21.701Z,31.67
2018-12-06T02:06:49.778Z,28.63
2018-12-06T02:09:17.744Z,31.13
2018-12-06T02:11:45.818Z,29.97
2018-12-06T02:14:13.774Z,28.13
2018-12-06T02:16:43.814Z,26.67
2018-12-06T02:19:12.979Z,26.93
2018-12-06T02:21:41.716Z,25.80
2018-12-06T02:24:10.484Z,29.30
2018-12-06T02:26:38.445Z,27.33
2018-12-06T02:29:06.388Z,31.10
2018-12-06T02:31:34.340Z,31.93
2018-12-06T02:34:02.290Z,27.60
2018-12-06T02:36:30.232Z,35.77
2018-12-06T02:38:58.174Z,31.27
2018-12-06T02:41:26.125Z,30.17
2018-12-06T02:43:54.869Z,27.33
2018-12-06T02:46:22.869Z,25.43
2018-12-06T02:48:50.884Z,30.03
2018-12-06T02:51:18.905Z,32.07
2018-12-06T02:53:46.897Z,28.67
2018-12-06T02:56:14.863Z,27.60
2018-12-06T02:58:43.017Z,29.27
2018-12-06T03:01:10.956Z,27.23
2018-12-06T03:03:38.932Z,25.57
2018-12-06T03:06:06.905Z,28.07
2018-12-06T03:08:34.920Z,27.53
2018-12-06T03:11:02.921Z,31.30
2018-12-06T03:13:30.914Z,31.60
2018-12-06T03:15:58.892Z,30.93
2018-12-06T03:18:26.889Z,31.17
2018-12-06T03:20:54.856Z,33.23
2018-12-06T03:23:22.824Z,32.43
2018-12-06T03:25:50.777Z,34.73
2018-12-06T03:28:18.754Z,32.77
2018-12-06T03:30:46.737Z,30.90
2018-12-06T03:33:14.878Z,32.60
2018-12-06T03:35:42.864Z,29.70
2018-12-06T03:38:10.848Z,30.50
2018-12-06T03:40:38.861Z,32.37
2018-12-06T03:43:06.822Z,27.93
2018-12-06T03:45:34.770Z,51.20
2018-12-06T03:48:02.785Z,29.93
2018-12-06T03:50:30.774Z,34.20
2018-12-06T03:52:58.712Z,26.77
2018-12-06T03:55:26.692Z,29.13
2018-12-06T03:57:54.656Z,30.17
2018-12-06T04:00:22.635Z,26.20
2018-12-06T04:02:50.617Z,31.37
2018-12-06T04:05:18.569Z,32.30
2018-12-06T04:07:46.599Z,29.73
2018-12-06T04:10:14.545Z,31.00
2018-12-06T04:12:43.033Z,29.47
2018-12-06T04:15:11.058Z,34.33
2018-12-06T04:17:39.061Z,26.87
2018-12-06T04:20:07.077Z,29.23
2018-12-06T04:22:35.009Z,28.93
2018-12-06T04:25:02.975Z,35.60
2018-12-06T04:27:30.941Z,32.23
2018-12-06T04:29:58.881Z,26.17
2018-12-06T04:32:26.839Z,27.87
2018-12-06T04:34:54.908Z,28.70
2018-12-06T04:37:22.860Z,26.70
2018-12-06T04:39:50.792Z,27.13
2018-12-06T04:42:18.853Z,30.93
2018-12-06T04:44:46.813Z,31.17
2018-12-06T04:47:14.781Z,31.63
2018-12-06T04:49:42.790Z,26.73
2018-12-06T04:52:10.760Z,32.83
2018-12-06T04:54:38.689Z,33.37
2018-12-06T04:57:07.121Z,38.87
2018-12-06T04:59:35.073Z,37.23
2018-12-06T05:02:03.022Z,48.47
2018-12-06T05:04:31.904Z,40.80
2018-12-06T05:06:59.909Z,49.97
2018-12-06T05:09:27.886Z,57.80
2018-12-06T05:11:55.852Z,46.50
2018-12-06T05:14:23.981Z,43.57
2018-12-06T05:16:52.028Z,53.87
2018-12-06T05:19:20.056Z,59.83
2018-12-06T05:21:48.008Z,52.87
2018-12-06T05:24:16.142Z,45.90
2018-12-06T05:26:44.216Z,52.17
2018-12-06T05:29:12.180Z,47.80
2018-12-06T05:31:40.247Z,42.10
2018-12-06T05:34:08.216Z,49.70
2018-12-06T05:36:36.160Z,53.20
2018-12-06T05:39:06.169Z,51.70
2018-12-06T05:41:34.145Z,68.03
2018-12-06T05:44:02.165Z,52.90
2018-12-06T05:46:30.137Z,54.97
2018-12-06T05:48:58.120Z,43.63
2018-12-06T05:51:26.079Z,38.13
2018-12-06T05:53:54.174Z,36.33
2018-12-06T05:56:22.788Z,38.23
2018-12-06T05:58:50.749Z,32.23
2018-12-06T06:01:18.722Z,37.93
2018-12-06T06:03:46.746Z,36.47
2018-12-06T06:06:14.720Z,30.33
2018-12-06T06:08:42.706Z,26.87
2018-12-06T06:11:10.665Z,32.10
2018-12-06T06:13:38.716Z,31.67
2018-12-06T06:16:06.744Z,35.87
2018-12-06T06:18:34.726Z,28.87
2018-12-06T06:21:02.735Z,27.63
2018-12-06T06:23:30.708Z,25.57
2018-12-06T06:25:58.680Z,24.70
2018-12-06T06:28:26.673Z,28.87
2018-12-06T06:33:31.610Z,23.50
2018-12-06T06:35:59.604Z,23.23
2018-12-06T06:38:27.650Z,20.90
2018-12-06T06:40:56.229Z,20.47
2018-12-06T06:43:24.338Z,18.90
2018-12-06T06:45:52.337Z,20.13
2018-12-06T06:48:20.345Z,19.87
2018-12-06T06:50:48.397Z,20.23
2018-12-06T06:53:16.344Z,24.47
2018-12-06T06:55:44.311Z,35.50
2018-12-06T06:58:12.393Z,19.63
2018-12-06T07:00:40.497Z,20.67
2018-12-06T07:03:08.489Z,20.87
2018-12-06T07:05:36.496Z,21.07
2018-12-06T07:08:04.482Z,21.40
2018-12-06T07:10:32.517Z,16.33
2018-12-06T07:13:00.536Z,19.27
2018-12-06T07:15:28.703Z,18.47
2018-12-06T07:17:56.697Z,15.70
2018-12-06T07:20:24.804Z,15.47
2018-12-06T07:22:52.812Z,20.90
2018-12-06T07:25:20.808Z,11.63
2018-12-06T07:27:48.781Z,19.60
2018-12-06T07:30:16.756Z,16.67
2018-12-06T07:32:44.724Z,19.10
2018-12-06T07:35:12.695Z,16.23
2018-12-06T07:37:40.640Z,12.83
2018-12-06T07:40:08.689Z,10.37
2018-12-06T07:42:36.660Z,16.50
2018-12-06T07:45:04.933Z,11.67
2018-12-06T07:47:32.891Z,15.17
2018-12-06T07:50:00.857Z,11.93
2018-12-06T07:52:28.904Z,11.40
2018-12-06T07:54:56.882Z,13.43
2018-12-06T07:57:24.895Z,13.63
2018-12-06T07:59:52.910Z,13.63
2018-12-06T08:02:20.840Z,15.27
2018-12-06T08:04:48.873Z,18.80
2018-12-06T08:07:16.833Z,13.33
2018-12-06T08:09:44.788Z,12.73
2018-12-06T08:12:12.729Z,13.10
2018-12-06T08:14:40.682Z,13.33
2018-12-06T08:17:08.685Z,13.40
2018-12-06T08:19:36.631Z,11.50
2018-12-06T08:22:04.594Z,9.57
2018-12-06T08:24:32.617Z,15.00
2018-12-06T08:27:01.576Z,9.37
2018-12-06T08:29:29.548Z,9.93
2018-12-06T08:31:57.482Z,15.07
2018-12-06T08:34:25.451Z,13.43
2018-12-06T08:36:53.411Z,14.40
2018-12-06T08:39:21.438Z,14.13
2018-12-06T08:41:49.509Z,13.77
2018-12-06T08:44:21.283Z,16.80
2018-12-06T08:46:47.692Z,17.27
2018-12-06T08:49:15.772Z,16.50
2018-12-06T08:51:43.709Z,14.00
2018-12-06T08:54:11.672Z,13.80
2018-12-06T08:56:39.630Z,16.53
2018-12-06T08:59:07.663Z,18.87
2018-12-06T09:01:35.615Z,11.30
2018-12-06T09:04:03.620Z,17.37
2018-12-06T09:06:31.561Z,10.77
2018-12-06T09:08:59.514Z,10.70
2018-12-06T09:11:27.514Z,17.23
2018-12-06T09:13:55.465Z,13.53
2018-12-06T09:16:23.432Z,14.30
2018-12-06T09:18:51.553Z,14.23
2018-12-06T09:21:19.509Z,17.73
2018-12-06T09:23:48.512Z,17.47
2018-12-06T09:26:16.504Z,15.73
2018-12-06T09:28:44.480Z,17.17
2018-12-06T09:31:12.459Z,13.00
2018-12-06T09:33:52.446Z,13.00
2018-12-06T09:36:20.493Z,10.07
2018-12-06T09:38:48.492Z,13.57
2018-12-06T09:41:16.455Z,12.20
2018-12-06T09:43:44.444Z,11.87
2018-12-06T09:46:12.424Z,10.20
2018-12-06T09:48:40.448Z,13.37
2018-12-06T09:51:08.414Z,10.43
2018-12-06T09:53:36.397Z,10.13
2018-12-06T09:56:05.382Z,13.87
2018-12-06T09:58:33.741Z,13.13
2018-12-06T10:01:01.766Z,14.80
2018-12-06T10:03:29.753Z,9.67
2018-12-06T10:05:57.779Z,10.43
2018-12-06T10:08:26.277Z,12.90
2018-12-06T10:10:54.401Z,11.47
2018-12-06T10:13:22.413Z,8.27
2018-12-06T10:15:50.382Z,14.90
2018-12-06T10:18:18.345Z,6.63
2018-12-06T10:20:46.397Z,16.80
2018-12-06T10:23:14.403Z,16.13
2018-12-06T10:25:42.488Z,10.70
2018-12-06T10:28:10.594Z,9.57
2018-12-06T10:30:38.589Z,8.30
2018-12-06T10:33:06.554Z,10.57
2018-12-06T10:35:35.117Z,9.67
2018-12-06T10:38:03.833Z,13.03
2018-12-06T10:40:31.791Z,13.87
2018-12-06T10:42:59.806Z,8.77
2018-12-06T10:45:27.757Z,7.23
2018-12-06T10:47:55.721Z,12.30
2018-12-06T10:50:23.652Z,4.47
2018-12-06T10:52:51.620Z,10.87
2018-12-06T10:55:19.613Z,4.57
2018-12-06T10:57:48.842Z,9.33
2018-12-06T11:00:22.365Z,7.67
2018-12-06T11:02:52.366Z,9.47
2018-12-06T11:05:20.597Z,7.83
2018-12-06T11:07:48.560Z,12.23
2018-12-06T11:10:16.525Z,7.17
2018-12-06T11:12:44.516Z,12.17
2018-12-06T11:15:12.468Z,8.43
2018-12-06T11:17:40.448Z,13.00
2018-12-06T11:20:08.465Z,7.37
2018-12-06T11:22:36.409Z,10.57
2018-12-06T11:25:05.524Z,9.07
2018-12-06T11:27:33.848Z,11.23
2018-12-06T11:30:03.124Z,8.47
2018-12-06T11:32:31.206Z,11.77
2018-12-06T11:34:59.283Z,10.07
2018-12-06T11:37:27.228Z,9.07
2018-12-06T11:39:55.192Z,10.33
2018-12-06T11:42:23.393Z,8.80
2018-12-06T11:44:51.492Z,8.43
2018-12-06T11:47:19.427Z,8.63
2018-12-06T11:49:47.480Z,11.70
2018-12-06T11:52:15.436Z,5.47
2018-12-06T11:54:44.367Z,9.03
2018-12-06T11:57:12.369Z,10.70
2018-12-06T11:59:40.328Z,7.93
2018-12-06T12:02:10.094Z,9.37
2018-12-06T12:04:38.276Z,9.27
2018-12-06T12:07:06.228Z,9.67
2018-12-06T12:09:34.726Z,2.23
2018-12-06T12:12:03.237Z,5.83
2018-12-06T12:14:31.279Z,5.30
2018-12-06T12:16:59.225Z,6.83
2018-12-06T12:19:27.180Z,5.80
2018-12-06T12:21:55.213Z,4.80
2018-12-06T12:24:23.160Z,6.50
2018-12-06T12:26:51.123Z,17.80
2018-12-06T12:29:19.085Z,7.47
2018-12-06T12:31:47.030Z,3.93
2018-12-06T12:34:14.961Z,7.47
2018-12-06T12:36:42.901Z,2.03
2018-12-06T12:39:11.156Z,8.00
2018-12-06T12:41:39.266Z,5.90
2018-12-06T12:44:07.237Z,9.67
2018-12-06T12:46:35.568Z,11.37
2018-12-06T12:49:03.920Z,5.07
2018-12-06T12:51:31.880Z,6.40
2018-12-06T12:53:59.828Z,5.17
2018-12-06T12:56:27.786Z,4.97
2018-12-06T12:58:55.732Z,8.40
2018-12-06T13:01:23.823Z,6.63
2018-12-06T13:03:51.857Z,4.20
2018-12-06T13:06:19.793Z,5.67
2018-12-06T13:08:47.705Z,4.97
2018-12-06T13:11:15.669Z,6.30
2018-12-06T13:13:43.612Z,3.77
2018-12-06T13:16:11.569Z,5.23
2018-12-06T13:18:39.534Z,4.83
2018-12-06T13:21:07.497Z,12.93
2018-12-06T13:23:36.549Z,7.83
2018-12-06T13:26:04.860Z,9.83
2018-12-06T13:28:33.094Z,11.03
2018-12-06T13:31:01.080Z,6.10
2018-12-06T13:33:29.022Z,7.77
2018-12-06T13:35:56.969Z,5.47
2018-12-06T13:38:24.920Z,6.27
2018-12-06T13:40:52.869Z,7.73
2018-12-06T13:43:20.816Z,6.50
2018-12-06T13:45:48.779Z,9.00
2018-12-06T13:48:16.728Z,9.60
2018-12-06T13:50:44.672Z,5.47
2018-12-06T13:53:12.637Z,8.33
2018-12-06T13:55:40.613Z,6.73
2018-12-06T13:58:08.663Z,8.30
2018-12-06T14:00:36.777Z,8.67
2018-12-06T14:03:05.417Z,4.47
2018-12-06T14:05:33.375Z,7.63
2018-12-06T14:08:01.361Z,7.17
2018-12-06T14:10:29.313Z,7.63
2018-12-06T14:12:57.271Z,6.30
2018-12-06T14:15:25.248Z,9.40
2018-12-06T14:17:53.228Z,7.87
2018-12-06T14:20:21.217Z,8.40
2018-12-06T14:22:49.179Z,6.60
2018-12-06T14:25:17.189Z,6.17
2018-12-06T14:27:45.155Z,3.30
2018-12-06T14:30:13.135Z,5.00
2018-12-06T14:32:41.128Z,4.20
2018-12-06T14:35:09.147Z,5.47
2018-12-06T14:37:37.876Z,7.63
2018-12-06T14:40:06.275Z,3.77
2018-12-06T14:42:34.241Z,5.43
2018-12-06T14:45:02.193Z,7.87
2018-12-06T14:47:30.184Z,4.00
2018-12-06T14:49:58.124Z,5.90
2018-12-06T14:52:26.066Z,2.63
2018-12-06T14:54:54.016Z,3.97
2018-12-06T14:57:21.978Z,4.43
2018-12-06T14:59:49.917Z,4.33
2018-12-06T15:02:17.902Z,4.33
2018-12-06T15:04:45.907Z,6.27
2018-12-06T15:07:13.882Z,6.93
2018-12-06T15:09:48.605Z,7.63
2018-12-06T15:12:16.553Z,6.80
2018-12-06T15:14:44.529Z,4.23
2018-12-06T15:17:12.458Z,4.57
2018-12-06T15:19:40.825Z,3.00
2018-12-06T15:22:08.968Z,7.33
2018-12-06T15:24:36.922Z,8.93
2018-12-06T15:27:04.884Z,8.23
2018-12-06T15:29:32.892Z,7.57
2018-12-06T15:32:00.869Z,5.63
2018-12-06T15:34:28.808Z,4.90
2018-12-06T15:36:56.775Z,5.80
2018-12-06T15:39:24.749Z,6.90
2018-12-06T15:41:52.701Z,5.10
2018-12-06T15:44:20.640Z,4.63
2018-12-06T15:46:48.621Z,3.77
2018-12-06T15:49:16.609Z,7.47
2018-12-06T15:51:45.451Z,4.50
2018-12-06T15:54:16.996Z,4.73
2018-12-06T15:56:51.986Z,5.73
2018-12-06T15:59:27.058Z,9.00
2018-12-06T16:02:05.344Z,6.63
2018-12-06T16:04:43.956Z,4.27
2018-12-06T16:07:20.227Z,5.47
2018-12-06T16:10:06.682Z,4.60
2018-12-06T16:12:42.876Z,4.20
2018-12-06T16:15:20.742Z,7.90
2018-12-06T16:17:55.614Z,6.20
2018-12-06T16:20:28.497Z,10.47
2018-12-06T16:23:01.269Z,9.57
2018-12-06T16:25:43.756Z,6.87
2018-12-06T16:28:20.496Z,6.70
2018-12-06T16:30:55.311Z,8.47
2018-12-06T16:39:47.081Z,7.37
2018-12-06T16:42:19.324Z,5.93
2018-12-06T16:44:52.595Z,8.50
2018-12-06T16:47:27.895Z,4.97
2018-12-06T16:49:59.814Z,8.17
2018-12-06T16:52:33.002Z,3.93
2018-12-06T16:55:03.393Z,6.97
2018-12-06T16:57:34.253Z,10.37
2018-12-06T17:00:24.279Z,6.00
2018-12-06T17:02:58.340Z,8.53
2018-12-06T17:05:31.733Z,4.20
2018-12-06T17:08:02.200Z,7.47
2018-12-06T17:10:34.806Z,5.60
2018-12-06T17:13:02.908Z,6.77
2018-12-06T17:15:31.394Z,6.83
2018-12-06T17:18:11.593Z,6.33
2018-12-06T17:20:43.534Z,6.67
2018-12-06T17:23:18.969Z,6.77
2018-12-06T17:25:51.713Z,5.87
2018-12-06T17:28:23.925Z,5.60
2018-12-06T17:30:58.690Z,8.97
2018-12-06T17:33:31.609Z,7.37
2018-12-06T17:36:03.426Z,12.50
2018-12-06T17:38:35.777Z,6.93
2018-12-06T17:41:12.624Z,5.90
2018-12-06T17:43:42.313Z,3.53
2018-12-06T17:46:11.041Z,8.60
2018-12-06T17:48:40.674Z,5.63
2018-12-06T17:51:10.936Z,9.07
2018-12-06T17:53:39.867Z,3.37
2018-12-06T17:56:08.418Z,9.43
2018-12-06T17:58:37.325Z,5.50
2018-12-06T18:01:05.783Z,5.97
2018-12-06T18:03:34.350Z,6.07
2018-12-06T18:06:05.042Z,11.33
2018-12-06T18:08:34.724Z,11.23
2018-12-06T18:11:03.572Z,5.00
2018-12-06T18:13:32.020Z,7.30
2018-12-06T18:16:01.322Z,13.00
2018-12-06T18:18:40.243Z,9.53
2018-12-06T18:21:06.991Z,11.93
2018-12-06T18:23:39.138Z,7.23
2018-12-06T18:26:08.339Z,6.70
2018-12-06T18:28:37.881Z,6.57
2018-12-06T18:31:06.898Z,6.17
2018-12-06T18:33:37.587Z,6.77
2018-12-06T18:36:06.693Z,7.30
2018-12-06T18:38:35.753Z,5.10
2018-12-06T18:41:04.033Z,9.60
2018-12-06T18:43:32.786Z,9.90
2018-12-06T18:46:01.529Z,7.13
2018-12-06T18:48:29.997Z,4.03
2018-12-06T18:50:59.300Z,3.40
2018-12-06T18:53:27.861Z,5.07
2018-12-06T18:55:57.350Z,4.13
2018-12-06T18:58:25.859Z,4.90
2018-12-06T19:00:54.729Z,9.73
2018-12-06T19:03:23.928Z,5.23
2018-12-06T19:05:53.642Z,4.03
2018-12-06T19:08:25.778Z,6.50
2018-12-06T19:11:00.045Z,6.20
2018-12-06T19:13:32.708Z,4.80
2018-12-06T19:16:02.643Z,6.30
2018-12-06T19:18:31.881Z,6.07
2018-12-06T19:21:00.950Z,4.57
2018-12-06T19:23:29.521Z,6.77
2018-12-06T19:25:58.757Z,7.10
2018-12-06T19:28:27.588Z,14.00
2018-12-06T19:30:57.506Z,10.97
2018-12-06T19:33:27.921Z,8.93
2018-12-06T19:35:58.479Z,10.63
2018-12-06T19:38:27.012Z,10.50
2018-12-06T19:40:58.333Z,15.40
2018-12-06T19:43:27.506Z,27.77
2018-12-06T19:45:57.903Z,9.67
2018-12-06T19:48:27.834Z,7.57
2018-12-06T19:50:57.437Z,9.27
2018-12-06T19:53:26.359Z,10.30
2018-12-06T19:55:57.285Z,5.70
2018-12-06T19:58:29.496Z,5.97
2018-12-06T20:00:57.500Z,7.30
2018-12-06T20:03:27.159Z,6.33
2018-12-06T20:05:56.905Z,9.40
2018-12-06T20:08:25.236Z,9.37
2018-12-06T20:10:54.259Z,5.47
2018-12-06T20:15:47.545Z,6.57
2018-12-06T20:18:15.488Z,8.10
2018-12-06T20:20:43.433Z,7.23
2018-12-06T20:23:11.385Z,8.57
2018-12-06T20:25:39.324Z,8.93
2018-12-06T20:28:07.273Z,8.60
2018-12-06T20:30:35.224Z,7.27
2018-12-06T20:33:03.199Z,6.13
2018-12-06T20:35:31.141Z,8.43
2018-12-06T20:37:59.088Z,7.73
2018-12-06T20:40:27.028Z,10.90
2018-12-06T20:42:55.035Z,7.77
2018-12-06T20:45:23.085Z,7.57
2018-12-06T20:47:51.036Z,12.37
2018-12-06T20:50:18.984Z,7.53
2018-12-06T20:52:46.934Z,7.87
2018-12-06T20:55:14.889Z,9.17
2018-12-06T20:57:42.828Z,7.03
2018-12-06T21:00:10.832Z,9.17
2018-12-06T21:02:38.769Z,8.00
2018-12-06T21:05:06.713Z,8.23
2018-12-06T21:07:34.659Z,11.20
2018-12-06T21:10:02.605Z,8.20
2018-12-06T21:12:31.329Z,6.63
2018-12-06T21:14:59.299Z,12.93
2018-12-06T21:17:27.278Z,7.90
2018-12-06T21:19:55.360Z,7.43
2018-12-06T21:22:23.370Z,11.20
2018-12-06T21:24:51.297Z,8.10
2018-12-06T21:27:20.593Z,9.03
2018-12-06T21:29:48.568Z,9.20
2018-12-06T21:32:16.542Z,9.47
2018-12-06T21:34:44.548Z,10.73
2018-12-06T21:37:12.489Z,11.13
2018-12-06T21:39:40.505Z,9.47
2018-12-06T21:42:08.436Z,7.13
2018-12-06T21:44:36.385Z,6.17
2018-12-06T21:47:04.410Z,9.20
2018-12-06T21:49:32.373Z,7.40
2018-12-06T21:52:00.328Z,9.77
2018-12-06T21:54:28.278Z,9.57
2018-12-06T21:56:56.252Z,8.80
2018-12-06T21:59:24.260Z,5.53
2018-12-06T22:02:02.184Z,6.20
2018-12-06T22:04:30.128Z,7.87
2018-12-06T22:06:58.064Z,6.47
2018-12-06T22:09:26.084Z,9.20
2018-12-06T22:11:54.314Z,6.77
2018-12-06T22:14:22.274Z,11.87
2018-12-06T22:16:50.291Z,8.57
2018-12-06T22:19:18.268Z,10.93
2018-12-06T22:21:46.221Z,8.90
2018-12-06T22:24:14.169Z,5.97
2018-12-06T22:26:42.134Z,11.93
2018-12-06T22:29:10.177Z,10.13
2018-12-06T22:31:38.108Z,8.93
2018-12-06T22:34:06.069Z,7.13
2018-12-06T22:36:34.011Z,9.13
2018-12-06T22:39:02.187Z,6.17
2018-12-06T22:41:30.128Z,8.27
2018-12-06T22:43:58.072Z,11.77
2018-12-06T22:46:26.012Z,8.67
2018-12-06T22:48:54.038Z,12.33
2018-12-06T22:51:24.424Z,12.30
2018-12-06T22:53:51.940Z,16.43
2018-12-06T22:56:19.968Z,12.33
2018-12-06T22:58:47.912Z,15.60
2018-12-06T23:01:17.949Z,7.83
2018-12-06T23:03:45.889Z,11.85
2018-12-06T23:06:14.064Z,7.50
2018-12-06T23:08:41.999Z,5.83
2018-12-06T23:11:09.944Z,10.63
2018-12-06T23:13:37.876Z,9.90
2018-12-06T23:16:05.820Z,7.50
2018-12-06T23:18:33.745Z,10.87
2018-12-06T23:21:01.764Z,7.83
2018-12-06T23:23:29.712Z,8.03
2018-12-06T23:25:57.659Z,18.37
2018-12-06T23:28:26.606Z,11.83
2018-12-06T23:30:54.572Z,12.30
2018-12-06T23:33:22.527Z,16.50
2018-12-06T23:35:50.524Z,8.83
2018-12-06T23:38:18.534Z,14.53
2018-12-06T23:40:46.492Z,8.70
2018-12-06T23:43:14.431Z,8.93
2018-12-06T23:45:42.399Z,13.30
2018-12-06T23:48:10.341Z,8.23
2018-12-06T23:50:38.286Z,6.60
2018-12-06T23:53:06.359Z,8.67
2018-12-06T23:55:34.292Z,11.13
2018-12-06T23:58:02.240Z,9.30
